createdAt,value
2023-03-06T00:03:18.685Z,4.34
2023-03-06T00:08:21.515Z,4.53
2023-03-06T00:13:24.964Z,4.45
2023-03-06T00:18:29.102Z,4.38
2023-03-06T00:23:32.099Z,4.72
2023-03-06T00:28:34.890Z,4.05
2023-03-06T00:33:38.959Z,4.13
2023-03-06T00:38:41.676Z,4.13
2023-03-06T00:43:44.756Z,4.09
2023-03-06T00:48:49.151Z,4.24
2023-03-06T00:53:51.910Z,4.05
2023-03-06T00:58:54.656Z,4.22
2023-03-06T01:03:59.116Z,4.12
2023-03-06T01:09:01.867Z,4.30
2023-03-06T01:14:04.707Z,3.97
2023-03-06T01:19:08.795Z,4.16
2023-03-06T01:24:11.966Z,4.06
2023-03-06T01:29:14.774Z,4.06
2023-03-06T01:34:18.879Z,4.30
2023-03-06T01:39:21.645Z,4.03
2023-03-06T01:44:24.389Z,4.24
2023-03-06T01:49:32.466Z,3.81
2023-03-06T01:54:39.124Z,3.87
2023-03-06T01:59:43.588Z,4.00
2023-03-06T02:04:48.825Z,4.34
2023-03-06T02:09:51.571Z,4.58
2023-03-06T02:14:54.778Z,4.35
2023-03-06T02:20:08.436Z,3.98
2023-03-06T02:25:24.654Z,4.03
2023-03-06T02:30:28.979Z,3.69
2023-03-06T02:35:33.687Z,3.48
2023-03-06T02:40:38.055Z,3.91
2023-03-06T02:45:45.184Z,4.22
2023-03-06T02:50:48.884Z,4.52
2023-03-06T02:55:53.074Z,4.48
2023-03-06T03:00:57.010Z,4.68
2023-03-06T03:05:59.860Z,4.57
2023-03-06T03:11:09.165Z,4.72
2023-03-06T03:16:16.441Z,4.81
2023-03-06T03:21:19.795Z,4.32
2023-03-06T03:26:25.631Z,4.63
2023-03-06T03:31:57.345Z,4.47
2023-03-06T03:37:01.996Z,4.86
2023-03-06T03:42:06.782Z,4.20
2023-03-06T03:47:09.731Z,4.82
2023-03-06T03:52:12.705Z,4.12
2023-03-06T03:57:17.869Z,3.78
2023-03-06T04:02:26.119Z,4.13
2023-03-06T04:07:54.836Z,3.90
2023-03-06T04:12:59.015Z,3.93
2023-03-06T04:18:03.252Z,4.20
2023-03-06T04:23:06.361Z,4.33
2023-03-06T04:28:12.195Z,3.87
2023-03-06T04:33:15.720Z,3.79
2023-03-06T04:38:19.409Z,4.20
2023-03-06T04:43:23.730Z,4.09
2023-03-06T04:48:26.411Z,3.79
2023-03-06T04:53:29.355Z,3.57
2023-03-06T04:58:33.599Z,3.41
2023-03-06T05:03:36.365Z,3.39
2023-03-06T05:08:39.157Z,3.50
2023-03-06T05:13:43.401Z,3.60
2023-03-06T05:18:46.103Z,3.71
2023-03-06T05:23:48.848Z,3.89
2023-03-06T05:28:53.800Z,3.85
2023-03-06T05:33:58.275Z,4.11
2023-03-06T05:39:01.108Z,3.95
2023-03-06T05:44:05.216Z,3.78
2023-03-06T05:49:08.196Z,3.83
2023-03-06T05:54:10.947Z,4.47
2023-03-06T05:59:15.629Z,4.41
2023-03-06T06:04:18.424Z,3.83
2023-03-06T06:09:22.374Z,4.23
2023-03-06T06:14:26.873Z,4.17
2023-03-06T06:19:30.665Z,4.44
2023-03-06T06:24:33.804Z,4.34
2023-03-06T06:29:38.337Z,4.32
2023-03-06T06:34:41.048Z,4.66
2023-03-06T06:39:43.762Z,4.39
2023-03-06T06:44:47.877Z,4.55
2023-03-06T06:49:51.309Z,5.01
2023-03-06T06:54:54.260Z,4.77
2023-03-06T06:59:58.370Z,4.60
2023-03-06T07:05:04.535Z,5.33
2023-03-06T07:10:13.220Z,4.92
2023-03-06T07:15:18.118Z,4.37
2023-03-06T07:20:21.187Z,4.43
2023-03-06T07:25:23.919Z,4.33
2023-03-06T07:30:28.104Z,4.72
2023-03-06T07:35:31.196Z,4.90
2023-03-06T07:40:34.032Z,4.60
2023-03-06T07:45:38.297Z,4.10
2023-03-06T07:50:41.841Z,5.13
2023-03-06T07:55:44.616Z,4.77
2023-03-06T08:00:48.901Z,5.30
2023-03-06T08:05:51.710Z,5.43
2023-03-06T08:10:54.518Z,5.49
2023-03-06T08:15:59.762Z,5.13
2023-03-06T08:21:04.106Z,5.62
2023-03-06T08:26:08.255Z,6.41
2023-03-06T08:31:14.590Z,6.83
2023-03-06T08:36:17.553Z,7.04
2023-03-06T08:41:21.027Z,6.24
2023-03-06T08:46:27.285Z,6.83
2023-03-06T08:51:30.167Z,6.08
2023-03-06T08:56:35.253Z,6.24
2023-03-06T09:01:39.688Z,6.70
2023-03-06T09:06:44.065Z,5.93
2023-03-06T09:11:46.928Z,6.52
2023-03-06T09:16:51.068Z,7.31
2023-03-06T09:21:54.059Z,6.89
2023-03-06T09:26:56.834Z,7.29
2023-03-06T09:32:01.164Z,6.90
2023-03-06T09:37:04.157Z,7.51
2023-03-06T09:42:12.139Z,7.02
2023-03-06T09:47:36.137Z,6.73
2023-03-06T09:52:46.961Z,7.85
2023-03-06T09:57:55.859Z,7.90
2023-03-06T10:03:11.407Z,8.88
2023-03-06T10:08:22.435Z,8.38
2023-03-06T10:13:29.476Z,8.00
2023-03-06T10:18:38.305Z,8.28
2023-03-06T10:23:51.304Z,8.07
2023-03-06T10:29:06.327Z,7.69
2023-03-06T10:34:21.895Z,7.73
2023-03-06T10:39:24.649Z,8.93
2023-03-06T10:44:27.370Z,8.93
2023-03-06T10:49:34.744Z,10.10
2023-03-06T10:54:40.136Z,9.74
2023-03-06T10:59:52.523Z,9.60
2023-03-06T11:04:58.266Z,9.93
2023-03-06T11:10:06.100Z,9.47
2023-03-06T11:15:18.411Z,7.48
2023-03-06T11:20:25.079Z,7.49
2023-03-06T11:25:33.407Z,9.40
2023-03-06T11:30:45.140Z,10.66
2023-03-06T11:35:58.386Z,10.89
2023-03-06T11:41:06.830Z,9.32
2023-03-06T11:46:15.100Z,8.20
2023-03-06T11:51:25.739Z,8.80
2023-03-06T11:56:37.347Z,8.49
2023-03-06T12:01:48.363Z,8.74
2023-03-06T12:07:03.198Z,9.68
2023-03-06T12:12:23.194Z,9.68
2023-03-06T12:17:35.084Z,9.13
2023-03-06T12:22:57.496Z,8.49
2023-03-06T12:28:23.160Z,9.27
2023-03-06T12:33:33.667Z,8.65
2023-03-06T12:38:52.991Z,8.55
2023-03-06T12:44:28.459Z,9.29
2023-03-06T12:49:34.523Z,8.84
2023-03-06T12:54:42.073Z,8.19
2023-03-06T12:59:47.899Z,8.75
2023-03-06T13:05:23.191Z,8.46
2023-03-06T13:10:31.607Z,8.01
2023-03-06T13:15:45.809Z,8.09
2023-03-06T13:20:50.151Z,8.18
2023-03-06T13:25:54.351Z,8.38
2023-03-06T13:30:57.143Z,8.44
2023-03-06T13:36:00.681Z,8.59
2023-03-06T13:41:50.996Z,8.75
2023-03-06T13:47:00.689Z,8.64
2023-03-06T13:52:09.524Z,8.55
2023-03-06T13:57:38.427Z,8.99
2023-03-06T14:02:56.746Z,8.11
2023-03-06T14:08:12.788Z,8.27
2023-03-06T14:13:19.614Z,8.47
2023-03-06T14:18:26.288Z,9.22
2023-03-06T14:23:32.201Z,8.98
2023-03-06T14:28:36.567Z,8.49
2023-03-06T14:33:45.189Z,8.38
2023-03-06T14:38:50.871Z,8.77
2023-03-06T14:43:54.060Z,8.16
2023-03-06T14:49:00.199Z,8.06
2023-03-06T14:54:03.732Z,8.26
2023-03-06T14:59:09.653Z,8.47
2023-03-06T15:04:21.120Z,7.35
2023-03-06T15:09:28.738Z,7.76
2023-03-06T15:14:35.410Z,7.93
2023-03-06T15:19:41.384Z,8.00
2023-03-06T15:24:44.122Z,8.55
2023-03-06T15:29:46.869Z,7.78
2023-03-06T15:35:30.612Z,8.34
2023-03-06T15:40:33.580Z,8.45
2023-03-06T15:45:36.463Z,8.54
2023-03-06T15:50:40.651Z,8.15
2023-03-06T15:55:43.745Z,8.33
2023-03-06T16:00:46.590Z,8.38
2023-03-06T16:05:50.681Z,8.33
2023-03-06T16:10:53.393Z,8.65
2023-03-06T16:15:57.079Z,8.52
2023-03-06T16:21:01.146Z,7.82
2023-03-06T16:26:04.225Z,7.60
2023-03-06T16:31:06.952Z,7.63
2023-03-06T16:36:16.567Z,7.59
2023-03-06T16:41:20.698Z,7.68
2023-03-06T16:46:26.219Z,7.53
2023-03-06T16:51:40.740Z,7.10
2023-03-06T16:56:43.832Z,7.01
2023-03-06T17:01:46.792Z,6.82
2023-03-06T17:06:52.749Z,7.22
2023-03-06T17:11:55.752Z,6.89
2023-03-06T17:16:58.723Z,7.10
2023-03-06T17:22:02.873Z,7.15
2023-03-06T17:27:05.701Z,6.71
2023-03-06T17:32:09.144Z,7.06
2023-03-06T17:37:13.313Z,7.32
2023-03-06T17:42:16.645Z,7.11
2023-03-06T17:47:19.534Z,6.86
2023-03-06T17:52:23.692Z,7.45
2023-03-06T17:57:26.516Z,7.30
2023-03-06T18:02:29.272Z,6.85
2023-03-06T18:07:33.360Z,7.43
2023-03-06T18:12:36.072Z,7.39
2023-03-06T18:17:38.881Z,7.27
2023-03-06T18:22:42.938Z,7.00
2023-03-06T18:27:45.693Z,7.18
2023-03-06T18:32:48.466Z,6.81
2023-03-06T18:37:53.030Z,7.03
2023-03-06T18:42:55.882Z,6.97
2023-03-06T18:47:58.619Z,7.05
2023-03-06T18:53:02.769Z,7.15
2023-03-06T18:58:05.516Z,6.72
2023-03-06T19:03:08.367Z,6.87
2023-03-06T19:08:13.426Z,7.02
2023-03-06T19:13:16.452Z,6.91
2023-03-06T19:18:19.383Z,7.07
2023-03-06T19:23:24.763Z,6.87
2023-03-06T19:28:28.324Z,7.01
2023-03-06T19:33:31.126Z,6.92
2023-03-06T19:38:35.419Z,6.78
2023-03-06T19:43:38.355Z,6.56
2023-03-06T19:48:41.419Z,6.49
2023-03-06T19:53:45.502Z,6.43
2023-03-06T19:58:48.914Z,6.35
2023-03-06T20:03:58.283Z,6.30
2023-03-06T20:09:04.162Z,6.01
2023-03-06T20:14:08.641Z,5.89
2023-03-06T20:19:12.006Z,5.85
2023-03-06T20:24:17.985Z,5.79
2023-03-06T20:29:20.793Z,5.68
2023-03-06T20:34:24.189Z,5.52
2023-03-06T20:39:28.314Z,5.34
2023-03-06T20:44:31.380Z,5.29
2023-03-06T20:49:34.334Z,5.24
2023-03-06T20:54:38.430Z,5.43
2023-03-06T20:59:41.249Z,5.29
2023-03-06T21:04:44.310Z,5.37
2023-03-06T21:09:49.740Z,5.46
2023-03-06T21:14:52.618Z,5.77
2023-03-06T21:19:55.403Z,5.63
2023-03-06T21:24:59.510Z,5.52
2023-03-06T21:30:02.272Z,5.71
2023-03-06T21:35:05.286Z,5.91
2023-03-06T21:40:11.246Z,6.05
2023-03-06T21:45:14.048Z,5.79
2023-03-06T21:50:16.868Z,6.14
2023-03-06T21:55:21.116Z,6.26
2023-03-06T22:00:25.773Z,6.31
2023-03-06T22:05:28.614Z,6.44
2023-03-06T22:10:32.791Z,6.21
2023-03-06T22:15:35.510Z,5.98
2023-03-06T22:20:40.365Z,6.03
2023-03-06T22:25:44.486Z,6.27
2023-03-06T22:30:47.317Z,6.09
2023-03-06T22:35:50.291Z,6.22
2023-03-06T22:40:57.339Z,6.23
2023-03-06T22:46:02.053Z,5.63
2023-03-06T22:51:05.933Z,5.69
2023-03-06T22:56:12.820Z,5.44
2023-03-06T23:01:17.764Z,5.53
2023-03-06T23:06:22.694Z,5.49
2023-03-06T23:11:27.945Z,5.71
2023-03-06T23:16:49.001Z,5.35
2023-03-06T23:22:10.616Z,5.29
2023-03-06T23:27:33.320Z,5.33
2023-03-06T23:32:36.219Z,5.32
2023-03-06T23:37:38.964Z,5.27
2023-03-06T23:42:43.264Z,5.38
2023-03-06T23:47:46.024Z,4.92
2023-03-06T23:52:48.904Z,4.81
2023-03-06T23:57:53.001Z,5.36
